createdAt,value
2022-08-27T00:01:30.899Z,22.50
2022-08-27T00:04:03.140Z,22.48
2022-08-27T00:06:34.086Z,22.46
2022-08-27T00:09:06.026Z,22.45
2022-08-27T00:11:50.380Z,22.44
2022-08-27T00:14:43.241Z,22.40
2022-08-27T00:17:17.644Z,22.40
2022-08-27T00:19:50.948Z,22.36
2022-08-27T00:22:21.749Z,22.35
2022-08-27T00:24:53.857Z,22.33
2022-08-27T00:27:30.520Z,22.31
2022-08-27T00:30:03.778Z,22.32
2022-08-27T00:32:35.707Z,22.31
2022-08-27T00:35:17.652Z,22.28
2022-08-27T00:37:48.573Z,22.26
2022-08-27T00:40:22.511Z,22.23
2022-08-27T00:42:53.464Z,22.20
2022-08-27T00:45:48.430Z,22.18
2022-08-27T00:48:27.330Z,22.15
2022-08-27T00:51:07.344Z,22.11
2022-08-27T00:53:40.882Z,22.09
2022-08-27T00:56:17.676Z,22.09
2022-08-27T00:58:53.474Z,22.08
2022-08-27T01:01:31.003Z,22.06
2022-08-27T01:04:09.696Z,22.07
2022-08-27T01:06:45.654Z,22.06
2022-08-27T01:09:19.167Z,22.03
2022-08-27T01:11:54.085Z,22.01
2022-08-27T01:14:27.686Z,22.00
2022-08-27T01:17:03.025Z,21.97
2022-08-27T01:19:40.912Z,21.95
2022-08-27T01:22:36.376Z,21.93
2022-08-27T01:25:17.805Z,21.90
2022-08-27T01:27:50.096Z,21.82
2022-08-27T01:30:23.924Z,21.82
2022-08-27T01:32:56.617Z,21.83
2022-08-27T01:35:27.563Z,21.85
2022-08-27T01:37:58.208Z,21.85
2022-08-27T01:40:31.337Z,21.85
2022-08-27T01:43:03.332Z,21.85
2022-08-27T01:45:37.608Z,21.83
2022-08-27T01:48:09.913Z,21.84
2022-08-27T01:50:43.022Z,21.83
2022-08-27T01:53:50.283Z,21.84
2022-08-27T01:56:36.817Z,21.82
2022-08-27T01:59:39.112Z,21.82
2022-08-27T02:02:33.125Z,21.78
2022-08-27T02:05:08.623Z,21.81
2022-08-27T02:07:40.640Z,21.83
2022-08-27T02:10:20.394Z,21.82
2022-08-27T02:12:51.778Z,21.78
2022-08-27T02:15:24.954Z,21.78
2022-08-27T02:17:56.785Z,21.78
2022-08-27T02:20:29.533Z,21.75
2022-08-27T02:23:35.946Z,21.75
2022-08-27T02:26:08.006Z,21.74
2022-08-27T02:28:39.346Z,21.70
2022-08-27T02:31:12.751Z,21.65
2022-08-27T02:33:44.836Z,21.62
2022-08-27T02:36:20.025Z,21.59
2022-08-27T02:38:51.656Z,21.57
2022-08-27T02:41:31.878Z,21.55
2022-08-27T02:44:23.917Z,21.56
2022-08-27T02:47:04.488Z,21.52
2022-08-27T02:49:37.667Z,21.54
2022-08-27T02:52:12.296Z,21.50
2022-08-27T02:54:54.916Z,21.45
2022-08-27T02:57:27.964Z,21.42
2022-08-27T02:59:59.436Z,21.37
2022-08-27T03:02:30.650Z,21.33
2022-08-27T03:05:01.567Z,21.34
2022-08-27T03:07:32.444Z,21.34
2022-08-27T03:10:07.712Z,21.36
2022-08-27T03:12:42.437Z,21.38
2022-08-27T03:15:21.412Z,21.35
2022-08-27T03:18:06.385Z,21.34
2022-08-27T03:20:43.957Z,21.31
2022-08-27T03:23:16.426Z,21.29
2022-08-27T03:25:55.096Z,21.24
2022-08-27T03:28:28.491Z,21.21
2022-08-27T03:31:02.289Z,21.17
2022-08-27T03:33:54.176Z,21.17
2022-08-27T03:36:26.271Z,21.16
2022-08-27T03:38:57.697Z,21.12
2022-08-27T03:41:54.569Z,21.09
2022-08-27T03:44:31.877Z,21.09
2022-08-27T03:47:03.427Z,21.05
2022-08-27T03:49:38.477Z,21.04
2022-08-27T03:52:11.153Z,21.02
2022-08-27T03:54:42.807Z,21.00
2022-08-27T03:57:14.600Z,21.01
2022-08-27T03:59:45.626Z,20.98
2022-08-27T04:02:16.868Z,21.00
2022-08-27T04:04:47.904Z,21.00
2022-08-27T04:07:18.628Z,20.99
2022-08-27T04:09:49.740Z,20.99
2022-08-27T04:12:21.607Z,20.96
2022-08-27T04:14:53.639Z,20.92
2022-08-27T04:17:25.371Z,20.90
2022-08-27T04:19:56.271Z,20.90
2022-08-27T04:22:26.934Z,20.89
2022-08-27T04:25:38.186Z,20.91
2022-08-27T04:28:14.512Z,20.90
2022-08-27T04:31:13.909Z,20.88
2022-08-27T04:33:58.154Z,20.87
2022-08-27T04:37:07.911Z,20.81
2022-08-27T04:40:05.852Z,20.83
2022-08-27T04:42:57.312Z,20.80
2022-08-27T04:45:44.866Z,20.84
2022-08-27T04:48:24.529Z,20.87
2022-08-27T04:51:18.677Z,20.87
2022-08-27T04:55:28.235Z,20.88
2022-08-27T04:58:00.645Z,20.89
2022-08-27T05:00:31.299Z,20.89
2022-08-27T05:03:02.657Z,20.86
2022-08-27T05:05:34.288Z,20.86
2022-08-27T05:08:07.626Z,20.88
2022-08-27T05:10:49.568Z,20.87
2022-08-27T05:13:23.386Z,20.86
2022-08-27T05:16:06.775Z,20.87
2022-08-27T05:18:44.277Z,20.88
2022-08-27T05:21:28.034Z,20.87
2022-08-27T05:23:59.529Z,20.88
2022-08-27T05:26:31.613Z,20.87
2022-08-27T05:29:02.847Z,20.85
2022-08-27T05:31:33.863Z,20.86
2022-08-27T05:34:10.231Z,20.87
2022-08-27T05:36:47.930Z,20.89
2022-08-27T05:39:20.034Z,20.90
2022-08-27T05:41:52.815Z,20.93
2022-08-27T05:45:05.487Z,20.94
2022-08-27T05:48:01.717Z,20.97
2022-08-27T05:51:08.727Z,20.99
2022-08-27T05:53:42.568Z,21.02
2022-08-27T05:57:10.069Z,21.05
2022-08-27T06:00:14.869Z,21.06
2022-08-27T06:02:47.285Z,21.08
2022-08-27T06:05:17.998Z,21.10
2022-08-27T06:07:48.649Z,21.10
2022-08-27T06:10:19.740Z,21.12
2022-08-27T06:12:53.748Z,21.15
2022-08-27T06:15:32.237Z,21.18
2022-08-27T06:18:05.774Z,21.20
2022-08-27T06:20:36.974Z,21.25
2022-08-27T06:23:08.235Z,21.31
2022-08-27T06:25:44.306Z,21.34
2022-08-27T06:28:41.896Z,21.38
2022-08-27T06:32:03.821Z,21.47
2022-08-27T06:34:35.644Z,21.58
2022-08-27T06:37:13.837Z,21.66
2022-08-27T06:39:55.511Z,21.73
2022-08-27T06:46:06.784Z,21.97
2022-08-27T06:48:54.642Z,22.05
2022-08-27T06:51:52.881Z,22.19
2022-08-27T06:54:56.689Z,22.34
2022-08-27T06:57:40.732Z,22.48
2022-08-27T07:00:19.991Z,22.65
2022-08-27T07:03:10.250Z,22.79
2022-08-27T07:05:44.884Z,22.92
2022-08-27T07:08:28.776Z,23.03
2022-08-27T07:11:13.486Z,23.16
2022-08-27T07:13:53.335Z,23.32
2022-08-27T07:16:27.103Z,23.43
2022-08-27T07:19:08.703Z,23.55
2022-08-27T07:21:41.758Z,23.72
2022-08-27T07:24:15.613Z,23.79
2022-08-27T07:26:47.326Z,23.96
2022-08-27T07:29:18.544Z,24.11
2022-08-27T07:31:49.386Z,24.26
2022-08-27T07:38:15.381Z,24.51
2022-08-27T07:40:45.944Z,24.66
2022-08-27T07:43:33.451Z,24.77
2022-08-27T07:46:04.830Z,24.91
2022-08-27T07:53:09.039Z,25.22
2022-08-27T07:59:13.158Z,25.55
2022-08-27T08:01:44.377Z,25.69
2022-08-27T08:04:19.512Z,25.84
2022-08-27T08:06:51.955Z,25.96
2022-08-27T08:09:24.312Z,26.09
2022-08-27T08:11:55.671Z,26.21
2022-08-27T08:14:26.648Z,26.32
2022-08-27T08:17:10.059Z,26.42
2022-08-27T08:19:50.192Z,26.56
2022-08-27T08:23:34.787Z,26.67
2022-08-27T08:26:31.732Z,26.90
2022-08-27T08:45:43.658Z,27.75
2022-08-27T08:48:58.747Z,27.84
2022-08-27T08:59:24.619Z,28.21
2022-08-27T09:02:16.156Z,28.33
2022-08-27T09:04:58.345Z,28.43
2022-08-27T09:07:46.108Z,28.53
2022-08-27T09:10:58.284Z,28.65
2022-08-27T09:16:41.302Z,28.87
2022-08-27T09:23:47.812Z,29.17
2022-08-27T09:27:05.930Z,29.28
2022-08-27T09:30:40.341Z,29.41
2022-08-27T09:43:14.904Z,29.87
2022-08-27T09:46:18.726Z,29.96
2022-08-27T09:50:43.606Z,30.07
2022-08-27T09:53:48.557Z,30.18
2022-08-27T09:57:51.118Z,30.30
2022-08-27T10:00:47.965Z,30.40
2022-08-27T10:08:03.678Z,30.59
2022-08-27T10:16:36.894Z,30.87
2022-08-27T10:20:30.478Z,30.97
2022-08-27T10:28:34.885Z,31.20
2022-08-27T10:31:31.638Z,31.31
2022-08-27T10:34:19.147Z,31.41
2022-08-27T10:37:36.628Z,31.48
2022-08-27T10:40:27.864Z,31.56
2022-08-27T10:43:30.501Z,31.64
2022-08-27T10:47:31.753Z,31.72
2022-08-27T10:50:20.114Z,31.83
2022-08-27T10:53:18.658Z,31.90
2022-08-27T10:55:59.587Z,31.90
2022-08-27T10:58:51.456Z,31.98
2022-08-27T11:01:40.318Z,32.08
2022-08-27T11:04:35.113Z,32.14
2022-08-27T11:12:13.332Z,32.27
2022-08-27T11:19:20.676Z,32.40
2022-08-27T11:22:26.149Z,32.43
2022-08-27T11:25:53.995Z,32.54
2022-08-27T11:28:38.278Z,32.58
2022-08-27T11:31:38.705Z,32.62
2022-08-27T11:34:45.646Z,32.69
2022-08-27T11:37:58.186Z,32.68
2022-08-27T11:41:00.745Z,32.70
2022-08-27T11:43:37.666Z,32.77
2022-08-27T11:46:13.949Z,32.81
2022-08-27T11:49:10.746Z,32.85
2022-08-27T11:51:43.795Z,32.89
2022-08-27T11:58:22.577Z,33.02
2022-08-27T12:00:54.749Z,33.06
2022-08-27T12:07:14.636Z,33.17
2022-08-27T12:10:11.901Z,33.18
2022-08-27T12:13:03.139Z,33.19
2022-08-27T12:15:36.503Z,33.20
2022-08-27T12:19:19.578Z,33.23
2022-08-27T12:22:56.083Z,33.28
2022-08-27T12:26:19.731Z,33.29
2022-08-27T12:29:47.775Z,33.30
2022-08-27T12:32:44.867Z,33.34
2022-08-27T12:35:40.646Z,33.37
2022-08-27T12:38:56.759Z,33.40
2022-08-27T12:42:13.668Z,33.43
2022-08-27T12:45:28.764Z,33.44
2022-08-27T12:48:48.770Z,33.40
2022-08-27T12:52:08.507Z,33.40
2022-08-27T12:55:26.723Z,33.34
2022-08-27T12:59:01.626Z,33.32
2022-08-27T13:02:31.566Z,33.29
2022-08-27T13:06:53.687Z,33.18
2022-08-27T13:10:10.603Z,33.05
2022-08-27T13:13:40.704Z,32.90
2022-08-27T13:16:57.913Z,32.83
2022-08-27T13:20:33.038Z,32.74
2022-08-27T13:23:47.924Z,32.62
2022-08-27T13:27:03.535Z,32.50
2022-08-27T13:30:35.191Z,32.42
2022-08-27T13:33:51.664Z,32.34
2022-08-27T13:37:18.929Z,32.28
2022-08-27T13:41:01.705Z,32.25
2022-08-27T13:44:20.698Z,32.21
2022-08-27T13:48:09.045Z,32.10
2022-08-27T13:51:24.442Z,32.01
2022-08-27T13:54:20.675Z,31.94
2022-08-27T13:57:47.965Z,31.85
2022-08-27T14:01:09.690Z,31.78
2022-08-27T14:04:09.502Z,31.67
2022-08-27T14:07:19.738Z,31.56
2022-08-27T14:10:51.627Z,31.45
2022-08-27T14:14:11.875Z,31.36
2022-08-27T14:17:36.919Z,31.29
2022-08-27T14:21:00.791Z,31.22
2022-08-27T14:24:39.647Z,31.11
2022-08-27T14:28:00.618Z,31.02
2022-08-27T14:31:24.710Z,30.91
2022-08-27T14:34:45.614Z,30.83
2022-08-27T14:38:07.682Z,30.74
2022-08-27T14:41:54.673Z,30.69
2022-08-27T14:45:25.013Z,30.64
2022-08-27T14:48:32.946Z,30.58
2022-08-27T14:51:27.068Z,30.53
2022-08-27T14:54:00.465Z,30.46
2022-08-27T14:56:31.479Z,30.36
2022-08-27T14:59:02.368Z,30.25
2022-08-27T15:01:37.612Z,30.12
2022-08-27T15:04:09.404Z,30.03
2022-08-27T15:16:20.623Z,29.75
2022-08-27T15:19:59.036Z,29.70
2022-08-27T15:22:56.733Z,29.65
2022-08-27T15:26:13.034Z,29.63
2022-08-27T15:28:51.559Z,29.60
2022-08-27T15:31:49.650Z,29.60
2022-08-27T15:48:38.240Z,29.59
2022-08-27T15:51:30.816Z,29.60
2022-08-27T15:54:02.516Z,29.61
2022-08-27T15:56:45.561Z,29.63
2022-08-27T16:00:01.661Z,29.60
2022-08-27T16:03:15.584Z,29.54
2022-08-27T16:06:39.167Z,29.47
2022-08-27T16:09:55.044Z,29.39
2022-08-27T16:13:12.328Z,29.25
2022-08-27T16:16:28.415Z,29.18
2022-08-27T16:19:42.586Z,29.09
2022-08-27T16:22:59.381Z,29.01
2022-08-27T16:26:13.428Z,28.93
2022-08-27T16:29:35.675Z,28.82
2022-08-27T16:32:52.722Z,28.74
2022-08-27T17:03:23.082Z,27.69
2022-08-27T17:07:59.178Z,27.55
2022-08-27T17:11:08.306Z,27.46
2022-08-27T17:14:27.420Z,27.41
2022-08-27T17:17:52.417Z,27.33
2022-08-27T17:21:10.329Z,27.26
2022-08-27T17:24:34.377Z,27.18
2022-08-27T17:27:41.552Z,27.13
2022-08-27T17:31:01.737Z,27.08
2022-08-27T17:34:18.838Z,27.08
2022-08-27T17:37:49.040Z,27.04
2022-08-27T17:41:16.677Z,27.05
2022-08-27T17:44:49.983Z,27.04
2022-08-27T17:51:53.860Z,26.99
2022-08-27T17:55:14.647Z,26.95
2022-08-27T17:59:01.722Z,26.92
2022-08-27T18:02:49.002Z,26.89
2022-08-27T18:07:12.246Z,26.86
2022-08-27T18:14:13.131Z,26.78
2022-08-27T18:18:09.131Z,26.73
2022-08-27T18:22:03.616Z,26.67
2022-08-27T18:25:36.407Z,26.63
2022-08-27T18:29:13.511Z,26.58
2022-08-27T18:32:39.677Z,26.55
2022-08-27T18:36:17.328Z,26.49
2022-08-27T18:39:43.077Z,26.45
2022-08-27T18:43:32.671Z,26.41
2022-08-27T18:47:13.850Z,26.38
2022-08-27T18:50:57.576Z,26.33
2022-08-27T18:58:12.881Z,26.25
2022-08-27T19:01:58.014Z,26.19
2022-08-27T19:17:54.423Z,25.97
2022-08-27T19:25:14.497Z,25.86
2022-08-27T19:28:51.201Z,25.81
2022-08-27T19:32:17.504Z,25.77
2022-08-27T19:38:59.549Z,25.65
2022-08-27T20:05:56.538Z,25.25
2022-08-27T20:09:19.613Z,25.21
2022-08-27T20:12:48.049Z,25.17
2022-08-27T20:16:13.600Z,25.12
2022-08-27T20:19:32.369Z,25.06
2022-08-27T20:22:49.536Z,25.00
2022-08-27T20:26:09.412Z,24.97
2022-08-27T20:32:42.677Z,24.87
2022-08-27T20:44:01.525Z,24.71
2022-08-27T20:50:55.034Z,24.55
2022-08-27T20:54:48.928Z,24.48
2022-08-27T21:01:29.358Z,24.38
2022-08-27T21:04:48.517Z,24.34
2022-08-27T21:08:04.625Z,24.30
2022-08-27T21:11:01.330Z,24.26
2022-08-27T21:14:18.337Z,24.23
2022-08-27T21:17:46.420Z,24.19
2022-08-27T21:21:05.713Z,24.14
2022-08-27T21:24:24.294Z,24.08
2022-08-27T21:27:51.486Z,24.00
2022-08-27T21:31:17.649Z,23.87
2022-08-27T21:34:40.206Z,23.77
